createdAt,value
2018-09-09T00:00:27.018Z,17.10
2018-09-09T00:03:01.318Z,17.00
2018-09-09T00:05:35.637Z,17.00
2018-09-09T00:08:10.022Z,17.00
2018-09-09T00:10:44.273Z,17.00
2018-09-09T00:13:18.581Z,17.00
2018-09-09T00:15:52.862Z,17.00
2018-09-09T00:18:27.213Z,17.00
2018-09-09T00:21:01.440Z,17.00
2018-09-09T00:23:35.696Z,17.00
2018-09-09T00:26:10.057Z,17.00
2018-09-09T00:28:44.451Z,16.90
2018-09-09T00:31:18.622Z,17.00
2018-09-09T00:33:52.847Z,16.90
2018-09-09T00:36:27.120Z,16.90
2018-09-09T00:39:01.394Z,16.90
2018-09-09T00:41:35.670Z,16.80
2018-09-09T00:44:10.013Z,16.90
2018-09-09T00:46:44.260Z,16.80
2018-09-09T00:49:23.843Z,16.80
2018-09-09T00:52:03.587Z,16.60
2018-09-09T00:54:37.769Z,16.70
2018-09-09T00:57:11.953Z,16.70
2018-09-09T00:59:46.198Z,16.80
2018-09-09T01:02:20.526Z,16.70
2018-09-09T01:04:54.909Z,16.70
2018-09-09T01:07:29.155Z,16.60
2018-09-09T01:10:03.422Z,16.60
2018-09-09T01:12:37.722Z,16.50
2018-09-09T01:15:12.146Z,16.50
2018-09-09T01:17:46.456Z,16.40
2018-09-09T01:20:20.795Z,16.40
2018-09-09T01:22:54.966Z,16.40
2018-09-09T01:25:29.284Z,16.30
2018-09-09T01:28:03.611Z,16.30
2018-09-09T01:30:37.893Z,16.30
2018-09-09T01:33:12.102Z,16.30
2018-09-09T01:35:46.368Z,16.20
2018-09-09T01:38:20.623Z,16.20
2018-09-09T01:40:54.845Z,16.10
2018-09-09T01:43:29.233Z,16.10
2018-09-09T01:46:03.511Z,16.00
2018-09-09T01:48:37.801Z,16.00
2018-09-09T01:51:12.094Z,16.10
2018-09-09T01:53:46.491Z,16.00
2018-09-09T01:56:20.908Z,16.00
2018-09-09T01:58:55.378Z,16.00
2018-09-09T02:01:29.536Z,16.00
2018-09-09T02:04:03.786Z,15.90
2018-09-09T02:06:38.082Z,16.00
2018-09-09T02:09:12.556Z,15.90
2018-09-09T02:11:46.950Z,15.90
2018-09-09T02:14:21.276Z,15.90
2018-09-09T02:16:55.581Z,15.90
2018-09-09T02:19:29.891Z,15.80
2018-09-09T02:22:04.162Z,15.90
2018-09-09T02:24:38.452Z,15.80
2018-09-09T02:27:12.646Z,15.80
2018-09-09T02:29:46.991Z,15.80
2018-09-09T02:32:21.283Z,15.80
2018-09-09T02:34:55.462Z,15.70
2018-09-09T02:37:29.758Z,15.70
2018-09-09T02:40:04.103Z,15.60
2018-09-09T02:42:38.401Z,15.60
2018-09-09T02:45:12.703Z,15.60
2018-09-09T02:47:46.896Z,15.60
2018-09-09T02:50:21.154Z,15.60
2018-09-09T02:52:55.478Z,15.60
2018-09-09T02:55:29.889Z,15.50
2018-09-09T02:58:04.335Z,15.50
2018-09-09T03:00:38.695Z,15.50
2018-09-09T03:03:13.046Z,15.40
2018-09-09T03:05:47.206Z,15.40
2018-09-09T03:08:21.510Z,15.30
2018-09-09T03:11:01.237Z,15.30
2018-09-09T03:13:35.662Z,15.30
2018-09-09T03:16:10.023Z,15.30
2018-09-09T03:18:44.262Z,15.20
2018-09-09T03:21:18.678Z,15.20
2018-09-09T03:23:52.847Z,15.20
2018-09-09T03:26:26.994Z,15.20
2018-09-09T03:29:01.324Z,15.10
2018-09-09T03:31:35.562Z,15.10
2018-09-09T03:34:09.986Z,15.20
2018-09-09T03:36:44.449Z,15.10
2018-09-09T03:39:18.758Z,15.10
2018-09-09T03:41:52.974Z,15.10
2018-09-09T03:44:27.258Z,15.10
2018-09-09T03:47:01.699Z,15.10
2018-09-09T03:49:35.947Z,15.10
2018-09-09T03:52:10.398Z,15.20
2018-09-09T03:54:44.772Z,15.20
2018-09-09T03:57:18.964Z,15.10
2018-09-09T03:59:53.242Z,15.20
2018-09-09T04:02:27.503Z,15.10
2018-09-09T04:05:01.783Z,15.10
2018-09-09T04:07:36.089Z,15.10
2018-09-09T04:10:10.328Z,15.10
2018-09-09T04:12:44.542Z,15.10
2018-09-09T04:15:18.901Z,15.10
2018-09-09T04:17:53.255Z,15.20
2018-09-09T04:20:27.581Z,15.10
2018-09-09T04:23:01.855Z,15.10
2018-09-09T04:25:36.023Z,15.10
2018-09-09T04:28:10.309Z,15.00
2018-09-09T04:30:44.580Z,15.00
2018-09-09T04:33:18.701Z,15.00
2018-09-09T04:35:52.984Z,15.00
2018-09-09T04:38:27.303Z,15.00
2018-09-09T04:41:01.786Z,15.10
2018-09-09T04:43:36.145Z,15.10
2018-09-09T04:46:10.589Z,15.00
2018-09-09T04:48:44.994Z,15.00
2018-09-09T04:51:19.371Z,15.10
2018-09-09T04:53:53.659Z,15.10
2018-09-09T04:56:27.781Z,15.10
2018-09-09T04:59:02.056Z,15.10
2018-09-09T05:01:36.394Z,15.10
2018-09-09T05:04:10.664Z,15.10
2018-09-09T05:06:44.999Z,15.20
2018-09-09T05:09:19.195Z,15.20
2018-09-09T05:11:53.427Z,15.20
2018-09-09T05:14:27.827Z,15.30
2018-09-09T05:17:02.395Z,15.30
2018-09-09T05:19:36.747Z,15.30
2018-09-09T05:22:11.161Z,15.30
2018-09-09T05:24:45.359Z,15.40
2018-09-09T05:27:19.627Z,15.40
2018-09-09T05:29:54.077Z,15.40
2018-09-09T05:32:28.493Z,15.40
2018-09-09T05:35:02.761Z,15.40
2018-09-09T05:37:36.971Z,15.30
2018-09-09T05:40:11.349Z,15.40
2018-09-09T05:42:45.597Z,15.30
2018-09-09T05:45:19.725Z,15.30
2018-09-09T05:47:53.878Z,15.30
2018-09-09T05:50:28.191Z,15.40
2018-09-09T05:53:02.444Z,15.40
2018-09-09T05:55:36.745Z,15.40
2018-09-09T05:58:10.946Z,15.40
2018-09-09T06:00:45.231Z,15.40
2018-09-09T06:03:19.686Z,15.50
2018-09-09T06:05:53.991Z,15.60
2018-09-09T06:08:28.181Z,15.70
2018-09-09T06:11:02.535Z,15.80
2018-09-09T06:13:36.895Z,15.90
2018-09-09T06:16:11.198Z,15.90
2018-09-09T06:18:45.628Z,16.10
2018-09-09T06:21:19.879Z,16.10
2018-09-09T06:23:54.080Z,16.10
2018-09-09T06:26:28.513Z,16.10
2018-09-09T06:29:02.706Z,16.10
2018-09-09T06:31:36.994Z,16.20
2018-09-09T06:34:11.400Z,16.20
2018-09-09T06:36:45.703Z,16.20
2018-09-09T06:39:20.037Z,16.20
2018-09-09T06:41:54.317Z,16.30
2018-09-09T06:44:28.616Z,16.30
2018-09-09T06:47:02.902Z,16.40
2018-09-09T06:49:37.108Z,16.40
2018-09-09T06:52:11.333Z,16.50
2018-09-09T06:54:45.508Z,16.60
2018-09-09T06:57:19.818Z,16.70
2018-09-09T06:59:53.991Z,16.80
2018-09-09T07:02:28.330Z,16.90
2018-09-09T07:05:02.530Z,17.00
2018-09-09T07:07:36.795Z,17.00
2018-09-09T07:10:11.246Z,17.10
2018-09-09T07:12:45.585Z,17.20
2018-09-09T07:15:20.074Z,17.30
2018-09-09T07:17:54.394Z,17.40
2018-09-09T07:20:28.622Z,17.60
2018-09-09T07:23:02.934Z,17.70
2018-09-09T07:25:37.110Z,17.90
2018-09-09T07:28:11.445Z,18.00
2018-09-09T07:30:45.854Z,18.20
2018-09-09T07:33:20.218Z,18.20
2018-09-09T07:35:54.606Z,18.30
2018-09-09T07:38:28.849Z,18.20
2018-09-09T07:41:03.202Z,18.20
2018-09-09T07:43:37.514Z,18.20
2018-09-09T07:46:11.837Z,18.20
2018-09-09T07:48:46.093Z,18.30
2018-09-09T07:51:20.382Z,18.40
2018-09-09T07:53:54.707Z,18.40
2018-09-09T07:56:28.902Z,18.50
2018-09-09T07:59:03.194Z,18.60
2018-09-09T08:01:37.510Z,18.70
2018-09-09T08:04:11.883Z,18.60
2018-09-09T08:06:46.299Z,18.50
2018-09-09T08:09:20.503Z,18.40
2018-09-09T08:11:54.755Z,18.50
2018-09-09T08:14:28.947Z,18.60
2018-09-09T08:17:03.379Z,18.80
2018-09-09T08:19:37.634Z,18.90
2018-09-09T08:22:11.939Z,19.00
2018-09-09T08:24:46.295Z,19.10
2018-09-09T08:27:20.603Z,19.20
2018-09-09T08:29:54.895Z,19.20
2018-09-09T08:32:29.154Z,19.30
2018-09-09T08:35:03.547Z,19.30
2018-09-09T08:37:37.847Z,19.50
2018-09-09T08:40:12.136Z,19.40
2018-09-09T08:42:46.561Z,19.20
2018-09-09T08:45:20.974Z,19.30
2018-09-09T08:47:55.216Z,19.50
2018-09-09T08:50:29.515Z,19.60
2018-09-09T08:53:03.953Z,19.70
2018-09-09T08:55:38.322Z,19.80
2018-09-09T08:58:12.584Z,20.00
2018-09-09T09:00:46.998Z,19.80
2018-09-09T09:03:21.501Z,20.00
2018-09-09T09:05:55.691Z,20.00
2018-09-09T09:08:29.975Z,19.90
2018-09-09T09:11:04.353Z,19.80
2018-09-09T09:13:38.515Z,19.90
2018-09-09T09:16:12.842Z,20.20
2018-09-09T09:18:47.067Z,20.30
2018-09-09T09:21:21.537Z,20.50
2018-09-09T09:23:55.902Z,20.80
2018-09-09T09:26:30.234Z,20.80
2018-09-09T09:29:04.483Z,20.90
2018-09-09T09:31:38.670Z,20.90
2018-09-09T09:34:12.977Z,21.10
2018-09-09T09:36:47.129Z,21.00
2018-09-09T09:39:21.416Z,21.10
2018-09-09T09:41:55.806Z,21.10
2018-09-09T09:44:30.162Z,21.20
2018-09-09T09:47:04.366Z,21.00
2018-09-09T09:49:38.806Z,21.30
2018-09-09T09:52:13.130Z,21.40
2018-09-09T09:54:47.411Z,21.40
2018-09-09T09:57:21.647Z,21.50
2018-09-09T09:59:55.950Z,21.50
2018-09-09T10:02:30.260Z,21.30
2018-09-09T10:05:04.538Z,21.10
2018-09-09T10:07:38.858Z,21.10
2018-09-09T10:10:13.146Z,21.00
2018-09-09T10:12:47.495Z,21.10
2018-09-09T10:15:21.871Z,21.60
2018-09-09T10:17:56.131Z,21.60
2018-09-09T10:20:30.487Z,21.60
2018-09-09T10:23:04.761Z,21.50
2018-09-09T10:25:39.102Z,21.70
2018-09-09T10:28:13.442Z,21.70
2018-09-09T10:30:47.782Z,21.70
2018-09-09T10:33:22.205Z,21.60
2018-09-09T10:35:56.478Z,21.70
2018-09-09T10:38:30.903Z,21.60
2018-09-09T10:41:05.175Z,21.80
2018-09-09T10:43:39.366Z,21.80
2018-09-09T10:46:13.896Z,21.60
2018-09-09T10:48:48.551Z,21.70
2018-09-09T10:51:22.854Z,21.90
2018-09-09T10:53:57.215Z,21.70
2018-09-09T10:56:31.447Z,22.00
2018-09-09T10:59:05.682Z,22.60
2018-09-09T11:01:40.014Z,22.80
2018-09-09T11:04:14.350Z,22.90
2018-09-09T11:06:48.670Z,23.00
2018-09-09T11:09:22.877Z,22.90
2018-09-09T11:11:57.129Z,23.00
2018-09-09T11:14:31.590Z,23.20
2018-09-09T11:17:05.775Z,23.30
2018-09-09T11:19:40.060Z,23.10
2018-09-09T11:22:14.238Z,23.20
2018-09-09T11:24:48.511Z,23.40
2018-09-09T11:27:22.897Z,23.70
2018-09-09T11:29:57.328Z,23.80
2018-09-09T11:32:31.553Z,23.90
2018-09-09T11:35:05.710Z,24.00
2018-09-09T11:37:39.973Z,23.90
2018-09-09T11:40:14.258Z,24.30
2018-09-09T11:42:48.574Z,24.20
2018-09-09T11:45:22.862Z,24.40
2018-09-09T11:47:57.165Z,24.50
2018-09-09T11:50:31.450Z,24.60
2018-09-09T11:53:06.051Z,24.70
2018-09-09T11:55:40.354Z,24.80
2018-09-09T11:58:14.540Z,24.90
2018-09-09T12:00:48.728Z,24.90
2018-09-09T12:03:23.014Z,24.80
2018-09-09T12:05:57.361Z,24.70
2018-09-09T12:08:31.653Z,24.80
2018-09-09T12:11:06.195Z,25.00
2018-09-09T12:13:40.529Z,25.30
2018-09-09T12:16:14.859Z,25.00
2018-09-09T12:18:49.154Z,25.30
2018-09-09T12:21:23.426Z,25.30
2018-09-09T12:23:57.690Z,24.80
2018-09-09T12:26:31.998Z,25.20
2018-09-09T12:29:06.285Z,25.40
2018-09-09T12:31:40.458Z,25.00
2018-09-09T12:34:14.766Z,24.60
2018-09-09T12:36:49.069Z,24.20
2018-09-09T12:39:23.362Z,24.00
2018-09-09T12:41:57.682Z,23.90
2018-09-09T12:44:37.485Z,23.90
2018-09-09T12:47:17.254Z,23.80
2018-09-09T12:49:51.383Z,23.60
2018-09-09T12:52:25.838Z,23.70
2018-09-09T12:55:00.153Z,23.80
2018-09-09T12:57:34.262Z,23.80
2018-09-09T13:00:08.827Z,24.00
2018-09-09T13:02:42.966Z,24.20
2018-09-09T13:05:17.259Z,24.10
2018-09-09T13:07:51.725Z,24.00
2018-09-09T13:10:25.925Z,23.60
2018-09-09T13:13:05.654Z,23.10
2018-09-09T13:15:39.883Z,23.60
2018-09-09T13:18:14.338Z,23.70
2018-09-09T13:20:48.595Z,24.30
2018-09-09T13:23:22.978Z,24.40
2018-09-09T13:25:57.171Z,24.70
2018-09-09T13:28:31.487Z,24.70
2018-09-09T13:31:05.918Z,24.60
2018-09-09T13:33:40.071Z,24.70
2018-09-09T13:36:14.324Z,24.60
2018-09-09T13:38:48.647Z,24.50
2018-09-09T13:41:22.907Z,24.50
2018-09-09T13:43:57.186Z,24.60
2018-09-09T13:46:31.634Z,24.40
2018-09-09T13:49:05.978Z,24.40
2018-09-09T13:51:40.242Z,24.40
2018-09-09T13:54:14.584Z,24.70
2018-09-09T13:56:49.012Z,24.70
2018-09-09T13:59:23.305Z,24.60
2018-09-09T14:01:57.657Z,25.00
2018-09-09T14:04:31.978Z,25.60
2018-09-09T14:07:06.146Z,25.40
2018-09-09T14:09:40.417Z,25.70
2018-09-09T14:12:14.546Z,25.70
2018-09-09T14:14:48.858Z,25.50
2018-09-09T14:17:23.153Z,25.60
2018-09-09T14:19:57.280Z,25.40
2018-09-09T14:22:31.765Z,25.80
2018-09-09T14:25:06.109Z,25.80
2018-09-09T14:27:40.281Z,25.80
2018-09-09T14:30:14.526Z,25.80
2018-09-09T14:32:49.044Z,25.90
2018-09-09T14:35:23.242Z,26.30
2018-09-09T14:37:57.630Z,26.40
2018-09-09T14:40:31.952Z,26.50
2018-09-09T14:43:06.403Z,26.60
2018-09-09T14:45:40.598Z,26.50
2018-09-09T14:48:15.021Z,26.70
2018-09-09T14:50:49.388Z,27.00
2018-09-09T14:53:23.788Z,27.10
2018-09-09T14:55:58.045Z,27.10
2018-09-09T14:58:32.427Z,27.20
2018-09-09T15:01:06.605Z,27.10
2018-09-09T15:03:40.875Z,27.50
2018-09-09T15:06:15.042Z,27.20
2018-09-09T15:08:49.327Z,27.30
2018-09-09T15:11:23.629Z,27.40
2018-09-09T15:13:57.883Z,27.40
2018-09-09T15:16:32.115Z,27.40
2018-09-09T15:19:06.475Z,27.70
2018-09-09T15:21:40.597Z,27.80
2018-09-09T15:24:14.887Z,27.80
2018-09-09T15:26:48.998Z,27.80
2018-09-09T15:29:23.361Z,27.70
2018-09-09T15:31:58.343Z,27.40
2018-09-09T15:34:32.566Z,27.20
2018-09-09T15:37:06.862Z,27.10
2018-09-09T15:39:41.182Z,27.10
2018-09-09T15:42:15.586Z,26.70
2018-09-09T15:44:49.970Z,26.80
2018-09-09T15:47:24.198Z,26.40
2018-09-09T15:49:58.350Z,26.50
2018-09-09T15:52:32.734Z,26.50
2018-09-09T15:55:07.064Z,26.40
2018-09-09T15:57:41.468Z,26.20
2018-09-09T16:00:15.845Z,26.20
2018-09-09T16:02:49.971Z,26.20
2018-09-09T16:05:24.282Z,26.40
2018-09-09T16:07:58.587Z,26.20
2018-09-09T16:10:32.782Z,26.40
2018-09-09T16:13:07.090Z,26.70
2018-09-09T16:15:41.351Z,26.90
2018-09-09T16:18:15.610Z,26.90
2018-09-09T16:20:50.000Z,26.90
2018-09-09T16:23:24.359Z,27.10
2018-09-09T16:25:58.674Z,27.10
2018-09-09T16:28:32.973Z,27.30
2018-09-09T16:31:07.283Z,27.00
2018-09-09T16:33:41.510Z,26.80
2018-09-09T16:36:15.903Z,26.90
2018-09-09T16:38:50.329Z,26.50
2018-09-09T16:41:24.482Z,26.40
2018-09-09T16:43:58.734Z,26.20
2018-09-09T16:46:33.079Z,25.90
2018-09-09T16:49:07.318Z,25.80
2018-09-09T16:51:41.545Z,25.70
2018-09-09T16:54:15.830Z,25.50
2018-09-09T16:56:50.526Z,25.40
2018-09-09T16:59:24.711Z,25.30
2018-09-09T17:01:59.114Z,25.30
2018-09-09T17:04:33.362Z,25.20
2018-09-09T17:07:07.785Z,25.20
2018-09-09T17:09:42.062Z,25.40
2018-09-09T17:12:16.336Z,25.70
2018-09-09T17:14:50.586Z,25.80
2018-09-09T17:17:24.875Z,25.80
2018-09-09T17:19:59.398Z,25.70
2018-09-09T17:22:33.678Z,25.60
2018-09-09T17:25:07.826Z,25.40
2018-09-09T17:27:42.247Z,25.20
2018-09-09T17:30:16.465Z,25.10
2018-09-09T17:32:50.692Z,25.00
2018-09-09T17:35:25.050Z,24.90
2018-09-09T17:37:59.318Z,24.80
2018-09-09T17:40:33.523Z,24.70
2018-09-09T17:43:07.786Z,24.50
2018-09-09T17:45:41.946Z,24.50
2018-09-09T17:48:16.407Z,24.30
2018-09-09T17:50:50.842Z,24.20
2018-09-09T17:53:25.162Z,24.00
2018-09-09T17:55:59.953Z,24.10
2018-09-09T17:58:34.135Z,23.90
2018-09-09T18:01:08.633Z,23.70
2018-09-09T18:03:42.936Z,23.60
2018-09-09T18:06:17.222Z,23.40
2018-09-09T18:08:51.485Z,23.30
2018-09-09T18:11:25.872Z,23.20
2018-09-09T18:14:00.254Z,23.10
2018-09-09T18:16:34.617Z,23.00
2018-09-09T18:19:09.012Z,22.80
2018-09-09T18:21:43.464Z,22.70
2018-09-09T18:24:17.746Z,22.70
2018-09-09T18:26:52.022Z,22.60
2018-09-09T18:29:26.445Z,22.60
2018-09-09T18:32:00.751Z,22.50
2018-09-09T18:34:34.986Z,22.40
2018-09-09T18:37:09.153Z,22.40
2018-09-09T18:39:43.407Z,22.30
2018-09-09T18:42:17.735Z,22.20
2018-09-09T18:44:52.033Z,22.20
2018-09-09T18:47:26.266Z,22.10
2018-09-09T18:50:00.698Z,22.10
2018-09-09T18:52:34.987Z,22.10
2018-09-09T18:55:09.202Z,22.00
2018-09-09T18:57:43.562Z,21.90
2018-09-09T19:00:18.113Z,21.80
2018-09-09T19:02:52.385Z,21.70
2018-09-09T19:05:26.775Z,21.60
2018-09-09T19:08:01.054Z,21.60
2018-09-09T19:10:35.387Z,21.60
2018-09-09T19:13:10.000Z,21.40
2018-09-09T19:15:44.269Z,21.40
2018-09-09T19:18:18.643Z,21.30
2018-09-09T19:20:52.942Z,21.20
2018-09-09T19:23:27.211Z,21.20
2018-09-09T19:26:01.587Z,21.20
2018-09-09T19:28:35.989Z,21.10
2018-09-09T19:31:10.111Z,21.00
2018-09-09T19:33:44.509Z,20.90
2018-09-09T19:36:18.855Z,20.80
2018-09-09T19:38:52.968Z,20.80
2018-09-09T19:41:27.283Z,20.70
2018-09-09T19:44:01.602Z,20.60
2018-09-09T19:46:36.019Z,20.50
2018-09-09T19:49:10.301Z,20.50
2018-09-09T19:51:44.538Z,20.50
2018-09-09T19:54:18.963Z,20.40
2018-09-09T19:56:53.354Z,20.40
2018-09-09T19:59:27.638Z,20.30
2018-09-09T20:02:01.935Z,20.30
2018-09-09T20:04:36.679Z,20.40
2018-09-09T20:07:11.024Z,20.30
2018-09-09T20:09:45.440Z,20.30
2018-09-09T20:12:19.684Z,19.90
2018-09-09T20:14:54.275Z,20.10
2018-09-09T20:17:28.363Z,20.30
2018-09-09T20:20:02.651Z,20.20
2018-09-09T20:22:36.954Z,20.20
2018-09-09T20:25:11.309Z,20.20
2018-09-09T20:27:45.602Z,20.20
2018-09-09T20:30:19.786Z,20.20
2018-09-09T20:32:54.037Z,20.20
2018-09-09T20:35:28.279Z,20.20
2018-09-09T20:38:02.610Z,20.10
2018-09-09T20:40:36.893Z,20.10
2018-09-09T20:43:11.285Z,20.10
2018-09-09T20:45:45.518Z,20.10
2018-09-09T20:48:19.857Z,20.00
2018-09-09T20:50:54.208Z,20.00
2018-09-09T20:53:28.547Z,19.90
2018-09-09T20:56:02.866Z,19.80
2018-09-09T20:58:37.321Z,19.70
2018-09-09T21:01:11.563Z,19.70
2018-09-09T21:03:45.963Z,19.60
2018-09-09T21:06:20.170Z,19.60
2018-09-09T21:08:54.514Z,19.60
2018-09-09T21:11:28.848Z,19.50
2018-09-09T21:14:03.019Z,19.50
2018-09-09T21:16:37.343Z,19.40
2018-09-09T21:19:11.574Z,19.30
2018-09-09T21:21:45.854Z,19.30
2018-09-09T21:24:20.166Z,19.20
2018-09-09T21:26:54.507Z,19.10
2018-09-09T21:29:28.776Z,19.10
2018-09-09T21:33:16.391Z,19.00
2018-09-09T21:35:50.703Z,18.90
2018-09-09T21:38:24.989Z,18.90
2018-09-09T21:40:59.514Z,18.90
2018-09-09T21:43:33.833Z,18.80
2018-09-09T21:46:08.123Z,18.70
2018-09-09T21:48:42.330Z,18.60
2018-09-09T21:51:16.579Z,18.60
2018-09-09T21:53:50.877Z,18.60
2018-09-09T21:56:25.252Z,18.60
2018-09-09T21:58:59.586Z,18.50
2018-09-09T22:01:39.266Z,18.40
2018-09-09T22:04:13.486Z,18.40
2018-09-09T22:06:47.726Z,18.40
2018-09-09T22:09:22.205Z,18.30
2018-09-09T22:11:56.406Z,18.20
2018-09-09T22:14:30.635Z,18.20
2018-09-09T22:17:04.790Z,18.20
2018-09-09T22:19:38.966Z,18.20
2018-09-09T22:22:13.249Z,18.20
2018-09-09T22:24:47.608Z,18.20
2018-09-09T22:27:21.950Z,18.10
2018-09-09T22:29:56.246Z,18.10
2018-09-09T22:32:30.569Z,18.10
2018-09-09T22:35:04.848Z,18.00
2018-09-09T22:37:39.194Z,17.90
2018-09-09T22:40:13.451Z,18.00
2018-09-09T22:42:47.599Z,18.00
2018-09-09T22:45:21.974Z,17.90
2018-09-09T22:47:56.356Z,17.80
2018-09-09T22:50:30.643Z,17.90
2018-09-09T22:53:04.909Z,17.90
2018-09-09T22:55:39.226Z,17.90
2018-09-09T22:58:13.521Z,17.90
2018-09-09T23:00:48.108Z,18.00
2018-09-09T23:03:22.374Z,18.00
2018-09-09T23:05:56.635Z,17.90
2018-09-09T23:08:30.843Z,17.90
2018-09-09T23:11:05.204Z,17.90
2018-09-09T23:13:39.790Z,17.90
2018-09-09T23:16:14.007Z,17.80
2018-09-09T23:18:48.179Z,17.80
2018-09-09T23:21:22.402Z,17.70
2018-09-09T23:23:56.850Z,17.70
2018-09-09T23:26:31.310Z,17.60
2018-09-09T23:29:05.526Z,17.70
2018-09-09T23:31:39.800Z,17.70
2018-09-09T23:34:14.201Z,17.70
2018-09-09T23:36:48.351Z,17.70
2018-09-09T23:39:22.566Z,17.70
2018-09-09T23:41:56.915Z,17.60
2018-09-09T23:44:31.095Z,17.60
2018-09-09T23:47:05.493Z,17.60
2018-09-09T23:49:39.682Z,17.50
2018-09-09T23:52:14.112Z,17.50
2018-09-09T23:54:48.395Z,17.40
2018-09-09T23:57:22.618Z,17.50
2018-09-09T23:59:56.910Z,17.50
